createdAt,value
2022-12-31T00:00:58.142Z,99849.34
2022-12-31T00:03:13.041Z,99858.66
2022-12-31T00:05:25.938Z,99862.86
2022-12-31T00:09:51.546Z,99868.04
2022-12-31T00:12:04.718Z,99870.84
2022-12-31T00:14:17.971Z,99870.64
2022-12-31T00:16:33.439Z,99877.44
2022-12-31T00:18:49.730Z,99880.27
2022-12-31T00:21:03.196Z,99879.29
2022-12-31T00:23:16.504Z,99879.81
2022-12-31T00:25:29.733Z,99884.50
2022-12-31T00:27:43.646Z,99890.30
2022-12-31T00:30:02.470Z,99894.84
2022-12-31T00:32:17.504Z,99898.69
2022-12-31T00:34:30.715Z,99892.45
2022-12-31T00:36:44.274Z,99893.88
2022-12-31T00:38:58.809Z,99898.73
2022-12-31T00:41:13.829Z,99905.60
2022-12-31T00:43:26.515Z,99908.25
2022-12-31T00:45:39.241Z,99908.52
2022-12-31T00:47:52.345Z,99912.73
2022-12-31T00:50:05.579Z,99920.50
2022-12-31T00:52:19.411Z,99925.55
2022-12-31T00:54:32.693Z,99921.48
2022-12-31T00:56:46.587Z,99921.83
2022-12-31T00:59:00.498Z,99914.38
2022-12-31T01:01:19.670Z,99920.14
2022-12-31T01:03:32.740Z,99920.58
2022-12-31T01:05:45.783Z,99922.02
2022-12-31T01:07:58.892Z,99922.31
2022-12-31T01:10:13.031Z,99923.30
2022-12-31T01:12:27.382Z,99922.65
2022-12-31T01:14:40.518Z,99925.23
2022-12-31T01:16:54.843Z,99926.30
2022-12-31T01:19:09.714Z,99928.02
2022-12-31T01:21:23.769Z,99926.67
2022-12-31T01:23:37.132Z,99921.73
2022-12-31T01:25:49.975Z,99913.11
2022-12-31T01:28:03.092Z,99914.42
2022-12-31T01:30:18.430Z,99920.89
2022-12-31T01:32:32.478Z,99923.86
2022-12-31T01:34:46.715Z,99919.88
2022-12-31T01:37:00.182Z,99919.98
2022-12-31T01:39:14.883Z,99924.56
2022-12-31T01:41:30.299Z,99916.71
2022-12-31T01:43:52.632Z,99924.98
2022-12-31T01:46:03.467Z,99922.75
2022-12-31T01:48:20.500Z,99922.52
2022-12-31T01:50:37.492Z,99924.68
2022-12-31T01:52:54.016Z,99934.27
2022-12-31T01:55:10.682Z,99938.09
2022-12-31T01:57:24.208Z,99941.61
2022-12-31T01:59:37.876Z,99942.05
2022-12-31T02:01:55.874Z,99940.61
2022-12-31T02:04:11.865Z,99939.98
2022-12-31T02:06:27.982Z,99939.11
2022-12-31T02:08:42.569Z,99940.92
2022-12-31T02:10:55.806Z,99936.30
2022-12-31T02:13:08.848Z,99942.39
2022-12-31T02:15:24.604Z,99943.96
2022-12-31T02:17:43.861Z,99946.33
2022-12-31T02:20:22.692Z,99949.90
2022-12-31T02:22:51.034Z,99953.50
2022-12-31T02:25:27.917Z,99955.48
2022-12-31T02:27:54.143Z,99956.95
2022-12-31T02:30:20.365Z,99962.23
2022-12-31T02:32:45.026Z,99964.70
2022-12-31T02:35:02.233Z,99964.27
2022-12-31T02:37:19.479Z,99966.89
2022-12-31T02:39:33.362Z,99971.45
2022-12-31T02:41:56.171Z,99973.36
2022-12-31T02:44:29.240Z,99979.48
2022-12-31T02:46:52.552Z,99974.97
2022-12-31T02:49:12.017Z,99974.09
2022-12-31T02:51:37.370Z,99976.02
2022-12-31T02:54:22.041Z,99978.54
2022-12-31T02:56:42.312Z,99978.77
2022-12-31T02:59:21.662Z,99980.52
2022-12-31T03:01:58.412Z,99983.17
2022-12-31T03:04:27.068Z,99984.84
2022-12-31T03:06:40.540Z,99984.90
2022-12-31T03:09:11.794Z,99985.31
2022-12-31T03:11:37.675Z,99988.95
2022-12-31T03:13:50.970Z,99992.20
2022-12-31T03:16:04.154Z,99994.61
2022-12-31T03:18:19.359Z,99997.93
2022-12-31T03:20:52.752Z,99996.74
2022-12-31T03:23:07.428Z,99995.24
2022-12-31T03:25:39.014Z,99993.05
2022-12-31T03:27:51.983Z,99995.52
2022-12-31T03:30:05.093Z,100002.70
2022-12-31T03:32:18.209Z,100005.98
2022-12-31T03:34:31.441Z,100012.11
2022-12-31T03:36:44.187Z,100008.88
2022-12-31T03:38:56.893Z,100015.37
2022-12-31T03:41:12.807Z,100015.77
2022-12-31T03:43:26.222Z,100021.54
2022-12-31T03:45:39.415Z,100024.49
2022-12-31T03:47:52.956Z,100031.76
2022-12-31T03:50:06.545Z,100037.16
2022-12-31T03:52:19.298Z,100044.50
2022-12-31T03:54:32.134Z,100050.54
2022-12-31T03:56:45.343Z,100054.04
2022-12-31T03:58:59.152Z,100054.73
2022-12-31T04:01:13.614Z,100064.65
2022-12-31T04:03:26.594Z,100071.34
2022-12-31T04:05:40.195Z,100079.91
2022-12-31T04:07:57.578Z,100084.42
2022-12-31T04:10:12.843Z,100090.41
2022-12-31T04:12:25.997Z,100092.61
2022-12-31T04:14:39.073Z,100090.75
2022-12-31T04:16:51.846Z,100099.20
2022-12-31T04:19:04.934Z,100104.65
2022-12-31T04:21:17.634Z,100106.29
2022-12-31T04:23:30.332Z,100106.78
2022-12-31T04:25:44.620Z,100102.45
2022-12-31T04:27:57.767Z,100102.79
2022-12-31T04:30:13.900Z,100101.79
2022-12-31T04:32:26.970Z,100109.19
2022-12-31T04:34:40.046Z,100111.23
2022-12-31T04:36:53.337Z,100107.74
2022-12-31T04:39:06.529Z,100109.04
2022-12-31T04:41:22.171Z,100113.33
2022-12-31T04:43:34.980Z,100117.02
2022-12-31T04:45:48.533Z,100119.84
2022-12-31T04:48:01.664Z,100118.99
2022-12-31T04:50:15.258Z,100123.60
2022-12-31T04:52:28.149Z,100115.11
2022-12-31T04:54:41.305Z,100112.23
2022-12-31T04:56:54.438Z,100118.59
2022-12-31T04:59:08.320Z,100119.54
2022-12-31T05:01:21.529Z,100119.73
2022-12-31T05:03:35.488Z,100118.91
2022-12-31T05:05:48.528Z,100117.72
2022-12-31T05:08:02.558Z,100121.97
2022-12-31T05:10:15.927Z,100121.38
2022-12-31T05:12:29.824Z,100128.00
2022-12-31T05:14:43.212Z,100134.70
2022-12-31T05:16:56.396Z,100138.34
2022-12-31T05:19:10.772Z,100140.42
2022-12-31T05:21:25.841Z,100142.77
2022-12-31T05:23:38.779Z,100137.38
2022-12-31T05:25:52.234Z,100138.61
2022-12-31T05:28:05.811Z,100142.89
2022-12-31T05:30:19.625Z,100145.70
2022-12-31T05:32:32.591Z,100155.11
2022-12-31T05:34:46.015Z,100158.11
2022-12-31T05:36:58.935Z,100162.50
2022-12-31T05:39:12.557Z,100172.81
2022-12-31T05:41:25.250Z,100181.61
2022-12-31T05:43:38.518Z,100187.58
2022-12-31T05:45:51.617Z,100193.77
2022-12-31T05:48:04.306Z,100199.70
2022-12-31T05:50:18.768Z,100206.63
2022-12-31T05:52:44.170Z,100208.03
2022-12-31T05:55:00.261Z,100208.45
2022-12-31T05:57:14.318Z,100214.67
2022-12-31T05:59:27.435Z,100216.80
2022-12-31T06:01:40.611Z,100220.55
2022-12-31T06:03:53.825Z,100221.33
2022-12-31T06:06:09.134Z,100221.39
2022-12-31T06:08:22.301Z,100219.09
2022-12-31T06:10:35.728Z,100222.73
2022-12-31T06:12:48.800Z,100222.61
2022-12-31T06:15:02.273Z,100224.15
2022-12-31T06:17:15.893Z,100219.88
2022-12-31T06:19:29.054Z,100217.98
2022-12-31T06:21:42.049Z,100223.58
2022-12-31T06:23:55.138Z,100231.11
2022-12-31T06:26:11.058Z,100232.26
2022-12-31T06:28:23.463Z,100240.84
2022-12-31T06:30:36.469Z,100239.91
2022-12-31T06:32:49.396Z,100246.10
2022-12-31T06:35:04.427Z,100247.08
2022-12-31T06:37:17.376Z,100253.53
2022-12-31T06:39:33.430Z,100260.52
2022-12-31T06:41:46.797Z,100262.55
2022-12-31T06:44:00.730Z,100264.14
2022-12-31T06:46:15.090Z,100265.64
2022-12-31T06:48:28.616Z,100268.96
2022-12-31T06:50:41.565Z,100263.36
2022-12-31T06:52:54.990Z,100264.70
2022-12-31T06:55:09.519Z,100259.71
2022-12-31T06:57:24.657Z,100265.85
2022-12-31T06:59:39.099Z,100269.25
2022-12-31T07:02:01.330Z,100274.20
2022-12-31T07:04:40.133Z,100276.98
2022-12-31T07:06:56.731Z,100282.86
2022-12-31T07:09:17.425Z,100288.00
2022-12-31T07:11:39.173Z,100290.85
2022-12-31T07:14:03.661Z,100291.01
2022-12-31T07:16:29.905Z,100293.77
2022-12-31T07:18:49.601Z,100296.42
2022-12-31T07:21:04.950Z,100301.33
2022-12-31T07:23:18.844Z,100304.38
2022-12-31T07:25:32.837Z,100300.89
2022-12-31T07:28:02.036Z,100302.77
2022-12-31T07:30:18.069Z,100299.65
2022-12-31T07:32:45.024Z,100304.25
2022-12-31T07:35:08.079Z,100304.33
2022-12-31T07:37:31.488Z,100305.23
2022-12-31T07:39:58.558Z,100297.70
2022-12-31T07:42:19.869Z,100294.64
2022-12-31T07:44:47.399Z,100293.78
2022-12-31T07:47:02.965Z,100300.80
2022-12-31T07:49:19.569Z,100303.58
2022-12-31T07:51:34.656Z,100302.16
2022-12-31T07:53:47.709Z,100306.45
2022-12-31T07:56:03.882Z,100304.59
2022-12-31T07:58:25.905Z,100310.00
2022-12-31T08:00:38.584Z,100309.86
2022-12-31T08:03:17.531Z,100315.30
2022-12-31T08:05:35.748Z,100318.64
2022-12-31T08:07:57.507Z,100320.20
2022-12-31T08:10:18.515Z,100314.21
2022-12-31T08:12:34.527Z,100316.36
2022-12-31T08:14:50.524Z,100320.33
2022-12-31T08:17:04.760Z,100325.68
2022-12-31T08:19:26.401Z,100326.09
2022-12-31T08:21:50.246Z,100331.29
2022-12-31T08:24:14.111Z,100338.06
2022-12-31T08:26:38.709Z,100340.27
2022-12-31T08:29:04.860Z,100345.30
2022-12-31T08:31:22.249Z,100342.00
2022-12-31T08:33:42.334Z,100340.44
2022-12-31T08:36:18.304Z,100338.91
2022-12-31T08:38:37.913Z,100331.61
2022-12-31T08:40:58.375Z,100332.64
2022-12-31T08:43:28.064Z,100332.88
2022-12-31T08:45:46.369Z,100336.91
2022-12-31T08:48:07.843Z,100336.76
2022-12-31T08:50:23.581Z,100339.44
2022-12-31T08:52:38.229Z,100336.95
2022-12-31T08:54:52.202Z,100339.36
2022-12-31T08:57:16.748Z,100343.33
2022-12-31T08:59:47.532Z,100337.85
2022-12-31T09:02:20.558Z,100336.98
2022-12-31T09:04:45.261Z,100343.92
2022-12-31T09:07:03.892Z,100360.21
2022-12-31T09:09:25.301Z,100369.84
2022-12-31T09:11:50.872Z,100381.65
2022-12-31T09:14:20.809Z,100375.14
2022-12-31T09:16:43.359Z,100381.77
2022-12-31T09:18:56.778Z,100384.77
2022-12-31T09:21:11.864Z,100386.94
2022-12-31T09:23:25.651Z,100393.89
2022-12-31T09:25:42.968Z,100397.15
2022-12-31T09:28:06.687Z,100403.58
2022-12-31T09:30:22.191Z,100405.08
2022-12-31T09:32:45.324Z,100407.21
2022-12-31T09:35:05.032Z,100408.10
2022-12-31T09:37:24.892Z,100414.58
2022-12-31T09:39:44.072Z,100411.39
2022-12-31T09:42:34.978Z,100412.27
2022-12-31T09:45:25.839Z,100415.59
2022-12-31T09:48:13.386Z,100426.39
2022-12-31T09:50:55.655Z,100431.67
2022-12-31T09:53:33.043Z,100434.28
2022-12-31T09:55:52.616Z,100437.45
2022-12-31T09:58:24.704Z,100440.19
2022-12-31T10:00:43.966Z,100441.61
2022-12-31T10:03:26.392Z,100447.56
2022-12-31T10:06:00.056Z,100450.02
2022-12-31T10:08:29.323Z,100456.67
2022-12-31T10:10:53.515Z,100456.27
2022-12-31T10:13:21.270Z,100461.30
2022-12-31T10:15:50.412Z,100460.78
2022-12-31T10:18:15.391Z,100466.41
2022-12-31T10:20:43.364Z,100470.88
2022-12-31T10:23:18.192Z,100469.84
2022-12-31T10:25:56.000Z,100472.53
2022-12-31T10:28:17.854Z,100475.81
2022-12-31T10:30:35.779Z,100481.52
2022-12-31T10:33:02.545Z,100488.07
2022-12-31T10:35:30.948Z,100490.27
2022-12-31T10:37:51.187Z,100494.85
2022-12-31T10:40:27.929Z,100490.59
2022-12-31T10:43:03.277Z,100501.88
2022-12-31T10:45:50.143Z,100505.64
2022-12-31T10:48:33.459Z,100502.29
2022-12-31T10:51:25.945Z,100506.98
2022-12-31T10:54:03.597Z,100513.45
2022-12-31T10:56:53.409Z,100511.98
2022-12-31T10:59:38.521Z,100517.98
2022-12-31T11:02:03.207Z,100519.05
2022-12-31T11:05:04.469Z,100528.37
2022-12-31T11:07:55.728Z,100534.35
2022-12-31T11:10:39.138Z,100534.52
2022-12-31T11:13:40.084Z,100533.92
2022-12-31T11:16:13.604Z,100537.16
2022-12-31T11:18:40.433Z,100541.38
2022-12-31T11:21:14.968Z,100540.33
2022-12-31T11:23:43.143Z,100547.02
2022-12-31T11:26:05.050Z,100547.64
2022-12-31T11:28:44.729Z,100545.80
2022-12-31T11:31:14.641Z,100546.27
2022-12-31T11:33:38.546Z,100552.84
2022-12-31T11:36:08.850Z,100555.23
2022-12-31T11:38:29.268Z,100552.34
2022-12-31T11:40:58.151Z,100546.59
2022-12-31T11:43:23.728Z,100545.77
2022-12-31T11:46:05.404Z,100553.81
2022-12-31T11:48:30.698Z,100552.09
2022-12-31T11:50:53.430Z,100552.60
2022-12-31T11:53:26.754Z,100553.45
2022-12-31T11:55:55.485Z,100555.27
2022-12-31T11:58:21.539Z,100552.48
2022-12-31T12:00:36.761Z,100549.50
2022-12-31T12:02:53.212Z,100552.93
2022-12-31T12:05:11.333Z,100560.39
2022-12-31T12:07:25.384Z,100562.10
2022-12-31T12:09:38.606Z,100566.19
2022-12-31T12:12:00.763Z,100562.38
2022-12-31T12:16:50.157Z,100557.80
2022-12-31T12:19:18.839Z,100556.24
2022-12-31T12:21:33.294Z,100561.43
2022-12-31T12:23:56.699Z,100553.89
2022-12-31T12:26:29.727Z,100557.15
2022-12-31T12:28:51.762Z,100557.18
2022-12-31T12:31:07.702Z,100564.13
2022-12-31T12:33:24.645Z,100564.70
2022-12-31T12:35:40.555Z,100559.65
2022-12-31T12:38:05.863Z,100563.02
2022-12-31T12:40:33.739Z,100555.21
2022-12-31T12:42:55.583Z,100551.33
2022-12-31T12:45:17.410Z,100553.39
2022-12-31T12:47:32.211Z,100553.16
2022-12-31T12:49:49.226Z,100556.99
2022-12-31T12:52:29.359Z,100563.85
2022-12-31T12:54:52.246Z,100563.53
2022-12-31T12:57:11.958Z,100562.21
2022-12-31T12:59:56.318Z,100564.72
2022-12-31T13:02:26.244Z,100565.22
2022-12-31T13:05:01.498Z,100565.60
2022-12-31T13:07:30.364Z,100567.70
2022-12-31T13:10:01.662Z,100565.98
2022-12-31T13:12:24.183Z,100562.98
2022-12-31T13:14:47.566Z,100560.24
2022-12-31T13:17:07.238Z,100562.31
2022-12-31T13:19:31.024Z,100568.50
2022-12-31T13:21:54.143Z,100572.80
2022-12-31T13:24:16.008Z,100567.91
2022-12-31T13:26:35.862Z,100563.53
2022-12-31T13:28:51.628Z,100561.75
2022-12-31T13:31:09.660Z,100557.77
2022-12-31T13:33:26.129Z,100569.13
2022-12-31T13:35:42.668Z,100573.44
2022-12-31T13:38:05.406Z,100572.08
2022-12-31T13:40:28.911Z,100573.58
2022-12-31T13:42:55.074Z,100573.85
2022-12-31T13:45:14.836Z,100569.67
2022-12-31T13:47:33.875Z,100574.55
2022-12-31T13:49:52.285Z,100576.22
2022-12-31T13:52:17.847Z,100578.30
2022-12-31T13:54:44.569Z,100581.18
2022-12-31T13:57:02.381Z,100591.46
2022-12-31T13:59:22.375Z,100595.55
2022-12-31T14:01:41.359Z,100597.45
2022-12-31T14:04:00.061Z,100594.73
2022-12-31T14:06:21.253Z,100596.81
2022-12-31T14:08:35.614Z,100600.90
2022-12-31T14:11:01.860Z,100604.24
2022-12-31T14:13:34.929Z,100600.23
2022-12-31T14:16:00.967Z,100605.13
2022-12-31T14:18:22.371Z,100612.19
2022-12-31T14:20:46.476Z,100613.36
2022-12-31T14:23:08.555Z,100615.06
2022-12-31T14:25:28.611Z,100616.92
2022-12-31T14:27:46.441Z,100616.95
2022-12-31T14:30:02.618Z,100623.22
2022-12-31T14:32:51.659Z,100619.86
2022-12-31T14:35:20.522Z,100620.00
2022-12-31T14:37:45.389Z,100623.88
2022-12-31T14:40:04.462Z,100627.03
2022-12-31T14:42:31.313Z,100625.36
2022-12-31T14:45:06.721Z,100625.08
2022-12-31T14:47:34.602Z,100626.58
2022-12-31T14:49:56.909Z,100626.90
2022-12-31T14:52:23.384Z,100628.15
2022-12-31T14:54:41.605Z,100630.65
2022-12-31T14:56:54.692Z,100629.29
2022-12-31T14:59:22.091Z,100629.64
2022-12-31T15:01:35.782Z,100635.57
2022-12-31T15:03:51.630Z,100636.98
2022-12-31T15:06:12.284Z,100634.50
2022-12-31T15:08:50.036Z,100636.01
2022-12-31T15:11:40.595Z,100635.94
2022-12-31T15:14:21.084Z,100635.72
2022-12-31T15:16:46.656Z,100633.21
2022-12-31T15:19:43.140Z,100632.15
2022-12-31T15:22:08.677Z,100633.10
2022-12-31T15:24:25.963Z,100627.60
2022-12-31T15:26:54.535Z,100623.10
2022-12-31T15:29:13.019Z,100619.22
2022-12-31T15:31:28.109Z,100616.48
2022-12-31T15:33:44.482Z,100620.36
2022-12-31T15:35:59.811Z,100627.61
2022-12-31T15:38:36.675Z,100625.34
2022-12-31T15:40:52.881Z,100624.02
2022-12-31T15:43:13.327Z,100627.71
2022-12-31T15:45:31.244Z,100625.63
2022-12-31T15:47:49.175Z,100622.03
2022-12-31T15:50:07.070Z,100622.42
2022-12-31T15:52:25.923Z,100620.36
2022-12-31T15:54:44.389Z,100620.27
2022-12-31T15:57:00.246Z,100619.89
2022-12-31T15:59:22.408Z,100619.86
2022-12-31T16:01:39.340Z,100621.88
2022-12-31T16:03:58.759Z,100626.39
2022-12-31T16:06:15.686Z,100631.88
2022-12-31T16:08:32.415Z,100631.05
2022-12-31T16:10:52.781Z,100629.13
2022-12-31T16:13:07.339Z,100625.64
2022-12-31T16:15:27.471Z,100630.52
2022-12-31T16:17:41.649Z,100632.44
2022-12-31T16:19:56.030Z,100640.77
2022-12-31T16:22:18.851Z,100645.59
2022-12-31T16:24:48.928Z,100644.59
2022-12-31T16:27:17.161Z,100648.55
2022-12-31T16:29:31.768Z,100652.13
2022-12-31T16:31:45.954Z,100653.91
2022-12-31T16:34:15.285Z,100655.81
2022-12-31T16:36:29.429Z,100655.01
2022-12-31T16:38:44.678Z,100653.05
2022-12-31T16:41:21.218Z,100653.43
2022-12-31T16:43:40.618Z,100662.78
2022-12-31T16:45:54.562Z,100668.42
2022-12-31T16:48:19.388Z,100670.89
2022-12-31T16:50:33.449Z,100667.50
2022-12-31T16:52:48.686Z,100674.99
2022-12-31T16:55:03.111Z,100682.36
2022-12-31T16:57:27.380Z,100681.09
2022-12-31T16:59:44.232Z,100685.70
2022-12-31T17:02:00.695Z,100690.38
2022-12-31T17:04:20.074Z,100693.83
2022-12-31T17:06:34.968Z,100701.26
2022-12-31T17:08:53.054Z,100708.10
2022-12-31T17:11:09.097Z,100713.96
2022-12-31T17:13:31.469Z,100719.29
2022-12-31T17:15:44.569Z,100723.50
2022-12-31T17:18:04.476Z,100728.27
2022-12-31T17:20:28.301Z,100734.15
2022-12-31T17:22:44.946Z,100745.34
2022-12-31T17:25:05.024Z,100747.21
2022-12-31T17:27:19.713Z,100749.21
2022-12-31T17:29:33.571Z,100749.73
2022-12-31T17:32:00.652Z,100749.39
2022-12-31T17:34:32.808Z,100753.84
2022-12-31T17:37:01.093Z,100756.95
2022-12-31T17:39:25.760Z,100766.08
2022-12-31T17:41:39.133Z,100766.02
2022-12-31T17:43:57.907Z,100767.27
2022-12-31T17:46:16.224Z,100771.06
2022-12-31T17:48:29.584Z,100773.08
2022-12-31T17:50:53.966Z,100775.53
2022-12-31T17:53:15.076Z,100777.48
2022-12-31T17:55:29.744Z,100779.63
2022-12-31T17:57:47.702Z,100780.80
2022-12-31T18:00:01.019Z,100780.77
2022-12-31T18:02:18.771Z,100781.89
2022-12-31T18:04:32.697Z,100788.41
2022-12-31T18:06:45.879Z,100796.11
2022-12-31T18:08:59.817Z,100802.99
2022-12-31T18:11:14.915Z,100804.56
2022-12-31T18:13:30.345Z,100812.35
2022-12-31T18:15:44.383Z,100815.70
2022-12-31T18:17:58.123Z,100823.11
2022-12-31T18:20:13.033Z,100830.23
2022-12-31T18:22:27.293Z,100832.59
2022-12-31T18:24:41.359Z,100833.91
2022-12-31T18:26:54.405Z,100839.67
2022-12-31T18:29:18.647Z,100839.94
2022-12-31T18:31:33.853Z,100844.98
2022-12-31T18:33:49.150Z,100845.71
2022-12-31T18:36:10.800Z,100845.56
2022-12-31T18:38:23.852Z,100852.66
2022-12-31T18:40:36.900Z,100848.96
2022-12-31T18:42:50.936Z,100850.18
2022-12-31T18:45:04.844Z,100850.05
2022-12-31T18:47:20.456Z,100852.10
2022-12-31T18:49:34.422Z,100853.75
2022-12-31T18:51:47.563Z,100856.37
2022-12-31T18:54:01.297Z,100858.55
2022-12-31T18:56:17.916Z,100855.56
2022-12-31T18:58:32.327Z,100858.63
2022-12-31T19:00:46.747Z,100857.39
2022-12-31T19:03:00.135Z,100855.90
2022-12-31T19:05:29.016Z,100860.45
2022-12-31T19:07:43.481Z,100858.56
2022-12-31T19:09:58.545Z,100859.11
2022-12-31T19:12:14.748Z,100856.17
2022-12-31T19:14:30.127Z,100853.36
2022-12-31T19:16:43.243Z,100859.48
2022-12-31T19:18:57.537Z,100859.05
2022-12-31T19:21:15.581Z,100860.81
2022-12-31T19:23:29.522Z,100861.08
2022-12-31T19:25:42.652Z,100862.89
2022-12-31T19:27:56.353Z,100860.39
2022-12-31T19:30:15.061Z,100855.27
2022-12-31T19:32:28.187Z,100849.44
2022-12-31T19:34:42.094Z,100851.50
2022-12-31T19:36:55.771Z,100849.77
2022-12-31T19:39:10.242Z,100844.36
2022-12-31T19:41:25.372Z,100847.70
2022-12-31T19:43:38.357Z,100846.80
2022-12-31T19:45:52.374Z,100843.91
2022-12-31T19:48:05.425Z,100844.02
2022-12-31T19:50:24.520Z,100844.73
2022-12-31T19:52:38.322Z,100837.80
2022-12-31T19:54:52.137Z,100837.24
2022-12-31T19:57:05.168Z,100839.86
2022-12-31T19:59:18.205Z,100834.36
2022-12-31T20:01:31.306Z,100836.11
2022-12-31T20:03:44.626Z,100835.67
2022-12-31T20:06:08.068Z,100836.12
2022-12-31T20:08:23.983Z,100834.94
2022-12-31T20:10:38.326Z,100832.56
2022-12-31T20:12:51.454Z,100825.44
2022-12-31T20:15:05.573Z,100825.51
2022-12-31T20:17:19.035Z,100823.34
2022-12-31T20:19:32.875Z,100821.88
2022-12-31T20:21:46.112Z,100823.74
2022-12-31T20:24:00.157Z,100819.94
2022-12-31T20:26:13.372Z,100820.47
2022-12-31T20:28:27.111Z,100822.18
2022-12-31T20:30:43.143Z,100823.44
2022-12-31T20:32:56.718Z,100823.92
2022-12-31T20:35:11.598Z,100821.84
2022-12-31T20:37:25.587Z,100822.55
2022-12-31T20:39:38.944Z,100825.70
2022-12-31T20:41:52.607Z,100816.81
2022-12-31T20:44:05.911Z,100821.70
2022-12-31T20:46:19.956Z,100818.42
2022-12-31T20:48:34.379Z,100818.68
2022-12-31T20:50:57.531Z,100817.73
2022-12-31T20:53:11.533Z,100819.47
2022-12-31T20:55:26.303Z,100814.86
2022-12-31T20:57:40.256Z,100813.06
2022-12-31T20:59:53.788Z,100810.36
2022-12-31T21:02:29.530Z,100813.46
2022-12-31T21:04:41.341Z,100810.62
2022-12-31T21:06:54.188Z,100810.58
2022-12-31T21:09:09.312Z,100807.90
2022-12-31T21:11:39.813Z,100811.04
2022-12-31T21:13:53.585Z,100813.65
2022-12-31T21:16:06.883Z,100817.30
2022-12-31T21:18:20.772Z,100818.63
2022-12-31T21:20:34.109Z,100819.09
2022-12-31T21:22:47.137Z,100814.66
2022-12-31T21:25:02.117Z,100815.66
2022-12-31T21:27:15.083Z,100815.37
2022-12-31T21:29:34.291Z,100815.02
2022-12-31T21:31:48.472Z,100817.96
2022-12-31T21:34:02.707Z,100815.23
2022-12-31T21:36:16.829Z,100813.36
2022-12-31T21:38:29.969Z,100816.29
2022-12-31T21:40:42.866Z,100813.45
2022-12-31T21:42:56.700Z,100818.84
2022-12-31T21:45:12.038Z,100816.03
2022-12-31T21:47:47.578Z,100818.36
2022-12-31T21:50:03.200Z,100814.07
2022-12-31T21:52:35.033Z,100817.79
2022-12-31T21:55:05.586Z,100819.82
2022-12-31T21:57:19.735Z,100818.68
2022-12-31T22:00:09.098Z,100817.83
2022-12-31T22:02:59.416Z,100816.49
2022-12-31T22:05:21.387Z,100820.88
2022-12-31T22:07:38.771Z,100820.35
2022-12-31T22:09:52.754Z,100822.01
2022-12-31T22:12:06.645Z,100824.33
2022-12-31T22:14:20.445Z,100826.56
2022-12-31T22:16:34.091Z,100828.48
2022-12-31T22:18:48.495Z,100824.61
2022-12-31T22:21:17.470Z,100826.92
2022-12-31T22:23:34.561Z,100830.44
2022-12-31T22:25:48.550Z,100825.69
2022-12-31T22:28:36.908Z,100827.78
2022-12-31T22:30:36.649Z,100826.48
2022-12-31T22:32:50.327Z,100827.94
2022-12-31T22:35:04.033Z,100829.12
2022-12-31T22:37:46.381Z,100831.69
2022-12-31T22:39:51.097Z,100830.95
2022-12-31T22:42:04.100Z,100835.91
2022-12-31T22:44:19.661Z,100840.55
2022-12-31T22:46:33.521Z,100842.63
2022-12-31T22:48:47.272Z,100844.48
2022-12-31T22:51:03.589Z,100846.06
2022-12-31T22:53:16.865Z,100844.64
2022-12-31T22:55:30.767Z,100845.20
2022-12-31T22:57:45.909Z,100842.81
2022-12-31T23:00:00.012Z,100844.24
2022-12-31T23:02:13.239Z,100847.29
2022-12-31T23:04:26.782Z,100848.07
2022-12-31T23:06:45.641Z,100850.39
2022-12-31T23:09:16.880Z,100850.64
2022-12-31T23:11:30.031Z,100850.92
2022-12-31T23:14:03.184Z,100859.00
2022-12-31T23:16:34.865Z,100862.33
2022-12-31T23:19:05.797Z,100866.69
2022-12-31T23:21:36.907Z,100865.95
2022-12-31T23:23:51.174Z,100869.63
2022-12-31T23:26:08.021Z,100866.84
2022-12-31T23:28:23.956Z,100870.58
2022-12-31T23:30:37.193Z,100875.56
2022-12-31T23:32:50.528Z,100874.17
2022-12-31T23:35:09.580Z,100877.65
2022-12-31T23:37:22.991Z,100877.38
2022-12-31T23:39:36.563Z,100874.11
2022-12-31T23:41:50.914Z,100878.33
2022-12-31T23:44:04.600Z,100874.39
2022-12-31T23:46:18.446Z,100880.79
2022-12-31T23:48:31.607Z,100880.56
2022-12-31T23:50:52.453Z,100887.96
2022-12-31T23:53:06.465Z,100892.30
2022-12-31T23:55:20.786Z,100892.71
2022-12-31T23:57:34.804Z,100896.83
2022-12-31T23:59:48.182Z,100900.23
